Time;durP1;ratioP1;P1;durP2;ratioP2;P2;SDS_P1;SDS_P2;PMS_P1;PMS_P2;Temp;Humidity;BMP_temperature;BMP_pressure;BME280_temperature;BME280_humidity;BME280_pressure;Samples;Min_cycle;Max_cycle;Signal;HPM_P1;HPM_P2
2022/09/26 00:01:30;;;;;;;10.45;4.05;;;;;;;;;;5066661;28;20037;-65
2022/09/26 00:04:02;;;;;;;7.07;3.95;;;;;;;;;;5048466;28;20421;-66
2022/09/26 00:06:27;;;;;;;8.20;3.35;;;;;;;;;;5063520;28;20036;-66
2022/09/26 00:08:53;;;;;;;9.43;4.18;;;;;;;;;;5026652;28;20087;-65
2022/09/26 00:11:22;;;;;;;8.15;3.65;;;;;;;;;;5026310;28;20087;-66
2022/09/26 00:13:51;;;;;;;9.13;4.18;;;;;;;;;;5027134;28;20905;-66
2022/09/26 00:16:16;;;;;;;10.45;3.67;;;;;;;;;;5026666;28;20057;-66
2022/09/26 00:18:42;;;;;;;8.20;3.90;;;;;;;;;;5033214;28;20087;-66
2022/09/26 00:21:10;;;;;;;9.07;4.00;;;;;;;;;;5033369;28;20040;-66
2022/09/26 00:23:35;;;;;;;8.30;3.95;;;;;;;;;;5046384;28;20712;-66
2022/09/26 00:26:01;;;;;;;13.40;3.75;;;;;;;;;;5045181;28;20028;-66
2022/09/26 00:28:27;;;;;;;7.68;3.67;;;;;;;;;;5045168;28;20036;-66
2022/09/26 00:30:52;;;;;;;8.95;3.38;;;;;;;;;;5045994;28;20124;-66
2022/09/26 00:33:18;;;;;;;8.65;3.85;;;;;;;;;;5062056;28;20041;-66
2022/09/26 00:35:53;;;;;;;8.05;3.38;;;;;;;;;;5050369;28;20055;-65
2022/09/26 00:38:19;;;;;;;14.88;3.63;;;;;;;;;;5050113;28;20024;-66
2022/09/26 00:40:45;;;;;;;9.32;3.63;;;;;;;;;;5048963;28;20536;-66
2022/09/26 00:43:34;;;;;;;6.70;3.70;;;;;;;;;;5029815;28;20029;-65
2022/09/26 00:46:08;;;;;;;9.80;3.47;;;;;;;;;;5029971;28;20537;-66
2022/09/26 00:48:35;;;;;;;11.35;4.00;;;;;;;;;;5030190;28;20311;-65
2022/09/26 00:51:02;;;;;;;10.20;3.67;;;;;;;;;;5029927;28;20033;-66
2022/09/26 00:53:39;;;;;;;7.95;3.72;;;;;;;;;;5030335;28;20116;-66
2022/09/26 00:56:10;;;;;;;8.05;3.78;;;;;;;;;;5030247;28;20097;-65
2022/09/26 00:58:40;;;;;;;9.93;4.28;;;;;;;;;;5034413;28;20038;-66
2022/09/26 01:01:06;;;;;;;9.80;3.22;;;;;;;;;;5067507;28;20064;-65
2022/09/26 01:03:34;;;;;;;8.75;3.38;;;;;;;;;;5068784;28;20060;-65
2022/09/26 01:06:00;;;;;;;7.47;2.90;;;;;;;;;;5063226;28;20032;-66
2022/09/26 01:08:31;;;;;;;9.55;3.28;;;;;;;;;;5057032;28;20028;-66
2022/09/26 01:10:58;;;;;;;10.07;3.42;;;;;;;;;;5069757;28;20055;-65
2022/09/26 01:13:25;;;;;;;9.13;3.25;;;;;;;;;;5069898;28;20036;-66
2022/09/26 01:15:50;;;;;;;9.18;2.97;;;;;;;;;;5062735;28;20032;-65
2022/09/26 01:18:15;;;;;;;8.88;3.15;;;;;;;;;;5043173;28;20088;-66
2022/09/26 01:20:54;;;;;;;8.73;3.28;;;;;;;;;;5029383;28;20037;-66
2022/09/26 01:23:22;;;;;;;6.13;3.75;;;;;;;;;;5029503;28;20044;-65
2022/09/26 01:26:06;;;;;;;7.13;3.00;;;;;;;;;;5030308;28;20053;-65
2022/09/26 01:28:34;;;;;;;8.15;3.38;;;;;;;;;;5029835;28;20041;-65
2022/09/26 01:31:14;;;;;;;7.03;3.28;;;;;;;;;;5029637;28;20044;-66
2022/09/26 01:33:52;;;;;;;9.70;3.90;;;;;;;;;;5039276;28;20037;-65
2022/09/26 01:36:27;;;;;;;5.97;3.13;;;;;;;;;;5049127;28;20037;-65
2022/09/26 01:39:30;;;;;;;7.80;3.38;;;;;;;;;;5045664;28;20064;-65
2022/09/26 01:42:07;;;;;;;8.27;3.58;;;;;;;;;;5028988;28;20730;-65
2022/09/26 01:44:38;;;;;;;11.85;3.65;;;;;;;;;;5029090;28;20038;-66
2022/09/26 01:47:08;;;;;;;7.85;3.10;;;;;;;;;;5011932;28;20026;-65
2022/09/26 01:49:45;;;;;;;7.25;3.30;;;;;;;;;;5029101;28;20041;-66
2022/09/26 01:52:15;;;;;;;7.88;2.65;;;;;;;;;;5029201;28;20037;-66
2022/09/26 01:55:13;;;;;;;4.32;2.33;;;;;;;;;;5036284;28;20044;-65
2022/09/26 01:57:50;;;;;;;10.40;2.83;;;;;;;;;;5069488;28;20040;-65
2022/09/26 02:00:17;;;;;;;4.50;2.70;;;;;;;;;;5050571;28;20033;-66
2022/09/26 02:02:47;;;;;;;5.70;2.97;;;;;;;;;;5068933;28;20084;-66
2022/09/26 02:05:23;;;;;;;12.63;3.13;;;;;;;;;;5069014;28;20039;-65
2022/09/26 02:07:55;;;;;;;9.65;3.42;;;;;;;;;;5035450;28;20037;-66
2022/09/26 02:10:27;;;;;;;10.52;3.72;;;;;;;;;;5063319;28;20074;-65
2022/09/26 02:12:58;;;;;;;6.57;3.65;;;;;;;;;;5068866;28;20044;-66
2022/09/26 02:15:26;;;;;;;6.20;3.55;;;;;;;;;;5058557;28;20121;-66
2022/09/26 02:18:01;;;;;;;6.03;3.40;;;;;;;;;;5022415;28;20033;-66
2022/09/26 02:20:33;;;;;;;10.45;3.88;;;;;;;;;;5048468;28;20047;-66
2022/09/26 02:23:02;;;;;;;9.82;3.55;;;;;;;;;;5048822;28;20027;-65
2022/09/26 02:25:28;;;;;;;5.45;3.08;;;;;;;;;;5047617;28;20115;-65
2022/09/26 02:27:54;;;;;;;7.03;3.65;;;;;;;;;;5048221;28;20106;-65
2022/09/26 02:30:19;;;;;;;5.00;2.88;;;;;;;;;;5048141;28;20531;-65
2022/09/26 02:32:45;;;;;;;5.10;2.92;;;;;;;;;;5047743;28;20040;-66
2022/09/26 02:35:52;;;;;;;7.53;3.58;;;;;;;;;;5047999;28;20927;-65
2022/09/26 02:37:59;;;;;;;4.72;3.10;;;;;;;;;;5047696;28;20021;-65
2022/09/26 02:40:39;;;;;;;4.65;3.15;;;;;;;;;;5029838;28;20518;-66
2022/09/26 02:43:17;;;;;;;6.70;3.35;;;;;;;;;;5034353;28;20034;-65
2022/09/26 02:45:48;;;;;;;11.75;3.30;;;;;;;;;;5044891;28;20051;-66
2022/09/26 02:48:16;;;;;;;4.90;3.17;;;;;;;;;;5048123;28;20033;-66
2022/09/26 02:51:09;;;;;;;13.57;2.85;;;;;;;;;;5053002;28;20052;-66
2022/09/26 02:54:02;;;;;;;7.03;3.55;;;;;;;;;;5067350;28;20513;-66
2022/09/26 02:57:01;;;;;;;5.83;3.60;;;;;;;;;;5067396;28;20025;-65
2022/09/26 02:59:36;;;;;;;5.25;3.03;;;;;;;;;;5049579;28;20012;-65
2022/09/26 03:02:16;;;;;;;10.38;3.10;;;;;;;;;;5067960;28;20443;-65
2022/09/26 03:04:59;;;;;;;6.38;3.05;;;;;;;;;;5031065;28;20126;-66
2022/09/26 03:07:41;;;;;;;7.80;3.03;;;;;;;;;;5049064;28;20048;-66
2022/09/26 03:10:08;;;;;;;6.63;3.10;;;;;;;;;;5047341;28;20033;-66
2022/09/26 03:12:36;;;;;;;6.45;3.05;;;;;;;;;;5045536;28;20102;-65
2022/09/26 03:15:04;;;;;;;6.57;3.17;;;;;;;;;;5042305;28;20437;-65
2022/09/26 03:17:33;;;;;;;7.32;3.15;;;;;;;;;;5047328;28;20040;-66
2022/09/26 03:20:13;;;;;;;9.00;3.17;;;;;;;;;;5048766;28;20044;-66
2022/09/26 03:22:43;;;;;;;8.20;3.20;;;;;;;;;;5030455;28;20048;-66
2022/09/26 03:25:13;;;;;;;5.38;2.60;;;;;;;;;;5047051;28;20033;-66
2022/09/26 03:27:42;;;;;;;6.10;2.45;;;;;;;;;;5047309;28;20116;-66
2022/09/26 03:30:09;;;;;;;6.03;2.38;;;;;;;;;;5051407;28;20021;-65
2022/09/26 03:32:36;;;;;;;6.13;2.00;;;;;;;;;;5066896;28;20033;-66
2022/09/26 03:35:01;;;;;;;6.43;2.13;;;;;;;;;;5067173;28;20158;-65
2022/09/26 03:37:27;;;;;;;5.93;2.20;;;;;;;;;;5049149;28;20115;-65
2022/09/26 03:39:52;;;;;;;4.80;2.30;;;;;;;;;;5055200;28;20056;-66
2022/09/26 03:42:17;;;;;;;5.90;2.35;;;;;;;;;;5046275;28;20025;-65
2022/09/26 03:44:43;;;;;;;5.57;2.50;;;;;;;;;;5046814;28;20039;-65
2022/09/26 03:47:09;;;;;;;4.95;2.22;;;;;;;;;;5047515;28;20148;-65
2022/09/26 03:49:35;;;;;;;6.60;2.03;;;;;;;;;;5046617;28;20068;-66
2022/09/26 03:52:01;;;;;;;4.80;2.15;;;;;;;;;;5031750;28;20071;-65
2022/09/26 03:54:26;;;;;;;2.35;1.65;;;;;;;;;;5026894;28;20738;-65
2022/09/26 03:56:51;;;;;;;6.20;2.08;;;;;;;;;;5026645;28;20033;-66
2022/09/26 03:59:17;;;;;;;4.97;2.22;;;;;;;;;;5026403;28;20047;-66
2022/09/26 04:01:43;;;;;;;2.63;1.80;;;;;;;;;;5027112;28;20564;-66
2022/09/26 04:04:08;;;;;;;2.97;1.77;;;;;;;;;;5026529;28;20184;-65
2022/09/26 04:06:33;;;;;;;3.65;2.00;;;;;;;;;;5026776;28;20053;-65
2022/09/26 04:08:59;;;;;;;2.03;1.73;;;;;;;;;;5043330;28;20029;-65
2022/09/26 04:11:24;;;;;;;4.80;1.95;;;;;;;;;;5057473;28;20574;-66
2022/09/26 04:13:50;;;;;;;2.63;1.50;;;;;;;;;;5067102;28;20106;-65
2022/09/26 04:16:16;;;;;;;2.80;1.77;;;;;;;;;;5048407;28;20413;-66
2022/09/26 04:18:41;;;;;;;6.85;1.90;;;;;;;;;;5054733;28;20549;-66
2022/09/26 04:21:09;;;;;;;2.78;1.58;;;;;;;;;;5065835;28;20029;-66
2022/09/26 04:23:38;;;;;;;5.60;2.30;;;;;;;;;;5066345;28;20029;-65
2022/09/26 04:26:09;;;;;;;5.45;1.80;;;;;;;;;;5048240;28;20405;-65
2022/09/26 04:28:35;;;;;;;2.67;1.73;;;;;;;;;;5066097;28;20040;-66
2022/09/26 04:31:03;;;;;;;3.72;1.20;;;;;;;;;;5065342;28;20102;-66
2022/09/26 04:33:29;;;;;;;1.95;1.45;;;;;;;;;;5065454;28;20199;-66
2022/09/26 04:35:59;;;;;;;4.25;1.80;;;;;;;;;;5031477;28;20036;-65
2022/09/26 04:38:30;;;;;;;7.63;1.75;;;;;;;;;;5043140;28;20025;-66
2022/09/26 04:40:55;;;;;;;1.85;1.38;;;;;;;;;;5026221;28;20030;-66
2022/09/26 04:43:20;;;;;;;2.33;1.40;;;;;;;;;;5033354;28;20066;-65
2022/09/26 04:45:45;;;;;;;3.90;1.75;;;;;;;;;;5045979;28;20560;-65
2022/09/26 04:48:11;;;;;;;3.28;1.80;;;;;;;;;;5045641;28;20067;-65
2022/09/26 04:50:36;;;;;;;3.45;1.80;;;;;;;;;;5046021;28;20051;-66
2022/09/26 04:53:02;;;;;;;5.05;2.38;;;;;;;;;;5046442;28;20028;-66
2022/09/26 04:55:27;;;;;;;3.50;1.80;;;;;;;;;;5045284;28;20116;-65
2022/09/26 04:57:53;;;;;;;4.47;2.03;;;;;;;;;;5029107;28;20124;-66
2022/09/26 05:00:18;;;;;;;2.65;1.55;;;;;;;;;;5025754;28;20538;-65
2022/09/26 05:02:47;;;;;;;2.58;1.77;;;;;;;;;;5025841;28;20037;-65
2022/09/26 05:05:13;;;;;;;5.72;1.60;;;;;;;;;;5025669;28;20811;-65
2022/09/26 05:07:42;;;;;;;7.03;2.25;;;;;;;;;;5025059;28;20128;-66
2022/09/26 05:10:11;;;;;;;3.20;1.80;;;;;;;;;;5049377;28;20517;-66
2022/09/26 05:12:39;;;;;;;2.67;1.55;;;;;;;;;;5065669;28;20040;-66
2022/09/26 05:15:07;;;;;;;2.67;1.50;;;;;;;;;;5065233;28;20037;-66
2022/09/26 05:17:37;;;;;;;2.30;1.55;;;;;;;;;;5066849;28;20107;-66
2022/09/26 05:20:07;;;;;;;2.95;1.60;;;;;;;;;;5069756;28;20743;-65
2022/09/26 05:22:33;;;;;;;2.92;1.80;;;;;;;;;;5060363;28;20661;-65
2022/09/26 05:27:43;;;;;;;4.65;1.52;;;;;;;;;;5049764;28;20167;-65
2022/09/26 05:30:11;;;;;;;3.13;1.70;;;;;;;;;;5048995;28;20105;-65
2022/09/26 05:32:36;;;;;;;2.65;1.70;;;;;;;;;;5045049;28;20509;-66
2022/09/26 05:35:04;;;;;;;5.25;2.10;;;;;;;;;;5034920;28;20100;-65
2022/09/26 05:37:30;;;;;;;3.03;1.80;;;;;;;;;;5011605;28;20029;-65
2022/09/26 05:42:39;;;;;;;3.78;2.08;;;;;;;;;;5048380;28;20044;-66
2022/09/26 05:45:05;;;;;;;2.45;1.52;;;;;;;;;;5049076;28;20033;-66
2022/09/26 05:47:34;;;;;;;6.95;1.80;;;;;;;;;;5048803;28;20044;-66
2022/09/26 05:50:03;;;;;;;4.68;1.70;;;;;;;;;;5049448;28;20602;-66
2022/09/26 05:52:28;;;;;;;2.67;1.52;;;;;;;;;;5028530;28;20041;-66
2022/09/26 05:54:53;;;;;;;4.57;1.75;;;;;;;;;;5040099;28;20098;-66
2022/09/26 05:57:18;;;;;;;3.95;1.90;;;;;;;;;;5049040;28;20033;-66
2022/09/26 05:59:44;;;;;;;3.78;1.83;;;;;;;;;;5048507;28;20045;-66
2022/09/26 06:02:11;;;;;;;2.67;1.60;;;;;;;;;;5048966;28;20442;-66
2022/09/26 06:04:36;;;;;;;2.72;1.80;;;;;;;;;;5047972;28;20041;-66
2022/09/26 06:07:02;;;;;;;4.93;2.00;;;;;;;;;;5047610;28;20029;-66
2022/09/26 06:09:27;;;;;;;2.95;2.00;;;;;;;;;;5065202;28;20040;-66
2022/09/26 06:11:52;;;;;;;4.35;1.73;;;;;;;;;;5068385;28;20032;-66
2022/09/26 06:14:18;;;;;;;7.07;2.15;;;;;;;;;;5068049;28;20735;-66
2022/09/26 06:16:43;;;;;;;4.32;1.60;;;;;;;;;;5069145;28;20021;-66
2022/09/26 06:19:08;;;;;;;2.67;1.67;;;;;;;;;;5054893;28;20043;-66
2022/09/26 06:21:34;;;;;;;2.58;1.60;;;;;;;;;;5043438;28;20037;-66
2022/09/26 06:23:59;;;;;;;3.10;1.60;;;;;;;;;;5048040;28;20033;-66
2022/09/26 06:26:27;;;;;;;3.60;1.70;;;;;;;;;;5046165;28;20372;-66
2022/09/26 06:28:58;;;;;;;4.78;2.10;;;;;;;;;;5029683;28;20028;-66
2022/09/26 06:31:25;;;;;;;6.20;1.92;;;;;;;;;;5047941;28;20063;-66
2022/09/26 06:33:54;;;;;;;3.97;2.00;;;;;;;;;;5048330;28;20033;-66
2022/09/26 06:36:21;;;;;;;3.88;1.67;;;;;;;;;;5046027;28;20029;-66
2022/09/26 06:38:47;;;;;;;4.13;2.00;;;;;;;;;;5042837;28;20028;-66
2022/09/26 06:41:13;;;;;;;3.90;1.80;;;;;;;;;;5039692;28;20029;-66
2022/09/26 06:43:39;;;;;;;4.50;1.52;;;;;;;;;;5056817;28;20063;-66
2022/09/26 06:46:08;;;;;;;2.95;1.80;;;;;;;;;;5065399;28;20028;-66
2022/09/26 06:48:34;;;;;;;5.03;2.33;;;;;;;;;;5067109;28;20041;-66
2022/09/26 06:51:00;;;;;;;2.60;1.55;;;;;;;;;;5061905;28;20072;-66
2022/09/26 06:53:26;;;;;;;3.53;1.90;;;;;;;;;;5020177;28;20103;-66
2022/09/26 06:55:52;;;;;;;4.32;1.60;;;;;;;;;;5027676;28;20021;-66
2022/09/26 06:58:17;;;;;;;3.53;1.45;;;;;;;;;;5027300;28;20099;-66
2022/09/26 07:00:43;;;;;;;5.10;1.98;;;;;;;;;;5027820;28;20128;-66
2022/09/26 07:03:09;;;;;;;4.07;2.28;;;;;;;;;;5040646;28;20043;-66
2022/09/26 07:05:34;;;;;;;2.40;1.50;;;;;;;;;;5048182;28;20037;-66
2022/09/26 07:08:01;;;;;;;5.38;1.98;;;;;;;;;;5051045;28;20028;-66
2022/09/26 07:10:29;;;;;;;3.50;1.65;;;;;;;;;;5041979;28;20048;-66
2022/09/26 07:13:01;;;;;;;3.92;1.83;;;;;;;;;;5027309;28;20566;-66
2022/09/26 07:15:29;;;;;;;4.75;1.92;;;;;;;;;;5026211;28;20046;-66
2022/09/26 07:17:56;;;;;;;4.53;2.08;;;;;;;;;;5043631;28;20040;-66
2022/09/26 07:20:22;;;;;;;4.00;1.92;;;;;;;;;;5026781;28;20033;-66
2022/09/26 07:22:47;;;;;;;5.90;1.67;;;;;;;;;;5058573;28;20031;-66
2022/09/26 07:25:12;;;;;;;1.83;1.40;;;;;;;;;;5065244;28;20071;-66
2022/09/26 07:27:39;;;;;;;9.10;1.90;;;;;;;;;;5066759;28;20040;-66
2022/09/26 07:30:06;;;;;;;4.60;1.67;;;;;;;;;;5066157;28;20032;-66
2022/09/26 07:32:32;;;;;;;3.88;1.52;;;;;;;;;;5066909;28;20050;-66
2022/09/26 07:34:58;;;;;;;3.63;1.60;;;;;;;;;;5047835;28;20130;-66
2022/09/26 07:37:24;;;;;;;2.70;1.45;;;;;;;;;;5056320;28;20083;-66
2022/09/26 07:39:49;;;;;;;8.60;1.75;;;;;;;;;;5035899;28;20434;-66
2022/09/26 07:42:16;;;;;;;2.28;1.60;;;;;;;;;;5036805;28;20587;-66
2022/09/26 07:44:42;;;;;;;4.13;1.70;;;;;;;;;;5047123;28;20033;-66
2022/09/26 07:52:36;;;;;;;;;;;;;;;;;;5047108;28;20548;-66
2022/09/26 07:55:01;;;;;;;4.43;1.48;;;;;;;;;;5037804;28;19952;-66
2022/09/26 07:57:28;;;;;;;4.50;1.70;;;;;;;;;;5044283;28;20790;-66
2022/09/26 07:59:53;;;;;;;3.53;1.92;;;;;;;;;;5046684;28;20033;-66
2022/09/26 08:02:24;;;;;;;2.90;1.67;;;;;;;;;;5046141;28;20025;-66
2022/09/26 08:04:49;;;;;;;4.28;1.88;;;;;;;;;;5046800;28;20104;-66
2022/09/26 08:07:15;;;;;;;4.50;1.95;;;;;;;;;;5045273;28;20112;-66
2022/09/26 08:09:40;;;;;;;3.95;1.52;;;;;;;;;;5043513;28;20063;-66
2022/09/26 08:12:06;;;;;;;8.45;1.50;;;;;;;;;;5045746;28;20053;-66
2022/09/26 08:14:31;;;;;;;2.90;1.35;;;;;;;;;;5043584;28;20033;-66
2022/09/26 08:16:57;;;;;;;3.28;1.50;;;;;;;;;;5044691;28;20032;-66
2022/09/26 08:19:23;;;;;;;4.32;1.70;;;;;;;;;;5043684;28;20099;-66
2022/09/26 08:21:48;;;;;;;3.80;1.45;;;;;;;;;;5042596;28;20053;-66
2022/09/26 08:24:14;;;;;;;5.78;1.60;;;;;;;;;;5042927;28;20044;-66
2022/09/26 08:26:39;;;;;;;3.05;1.40;;;;;;;;;;5043496;28;20116;-65
2022/09/26 08:29:09;;;;;;;2.40;1.60;;;;;;;;;;5045047;28;20021;-66
2022/09/26 08:31:37;;;;;;;2.53;1.60;;;;;;;;;;5036446;28;20534;-66
2022/09/26 08:34:03;;;;;;;3.67;1.50;;;;;;;;;;5035245;28;20065;-66
2022/09/26 08:36:28;;;;;;;3.53;1.30;;;;;;;;;;5059130;28;20636;-65
2022/09/26 08:38:55;;;;;;;3.97;1.83;;;;;;;;;;5057223;28;20037;-66
2022/09/26 08:41:40;;;;;;;4.68;1.50;;;;;;;;;;5027407;28;20026;-66
2022/09/26 08:44:23;;;;;;;2.50;1.30;;;;;;;;;;5023826;28;20025;-66
2022/09/26 08:47:01;;;;;;;8.02;2.33;;;;;;;;;;5052771;28;20044;-66
2022/09/26 08:49:58;;;;;;;6.72;1.67;;;;;;;;;;5041348;28;20065;-66
2022/09/26 08:52:23;;;;;;;3.97;1.52;;;;;;;;;;5032842;28;20072;-66
2022/09/26 08:54:50;;;;;;;3.28;1.58;;;;;;;;;;5032387;28;20080;-66
2022/09/26 08:57:36;;;;;;;3.33;1.73;;;;;;;;;;5039536;28;20461;-66
2022/09/26 09:00:17;;;;;;;4.72;1.63;;;;;;;;;;5048325;28;20549;-66
2022/09/26 09:02:45;;;;;;;3.15;1.40;;;;;;;;;;5043530;28;20029;-66
2022/09/26 09:05:22;;;;;;;4.53;1.70;;;;;;;;;;5045921;28;20605;-66
2022/09/26 09:07:50;;;;;;;3.17;2.08;;;;;;;;;;5030570;28;20069;-66
2022/09/26 09:10:18;;;;;;;2.63;1.55;;;;;;;;;;5032490;28;20044;-66
2022/09/26 09:12:58;;;;;;;2.03;1.65;;;;;;;;;;5058373;28;20556;-66
2022/09/26 09:15:31;;;;;;;4.07;1.70;;;;;;;;;;5069316;28;20532;-66
2022/09/26 09:18:14;;;;;;;3.83;1.90;;;;;;;;;;5054110;28;20044;-66
2022/09/26 09:21:12;;;;;;;6.93;1.77;;;;;;;;;;5049875;28;20287;-66
2022/09/26 09:23:56;;;;;;;4.43;1.58;;;;;;;;;;5050191;28;20510;-66
2022/09/26 09:26:31;;;;;;;3.75;1.70;;;;;;;;;;5060164;28;20033;-67
2022/09/26 09:29:23;;;;;;;3.65;2.00;;;;;;;;;;5034395;28;20025;-66
2022/09/26 09:31:49;;;;;;;7.15;1.35;;;;;;;;;;5031655;28;20065;-66
2022/09/26 09:34:27;;;;;;;2.10;1.48;;;;;;;;;;5032173;28;20116;-67
2022/09/26 09:36:57;;;;;;;3.63;1.67;;;;;;;;;;5029640;28;20112;-66
2022/09/26 09:39:32;;;;;;;7.00;1.95;;;;;;;;;;5046380;28;20110;-66
2022/09/26 09:42:04;;;;;;;5.03;1.70;;;;;;;;;;5033228;28;20033;-67
2022/09/26 09:44:47;;;;;;;2.40;1.40;;;;;;;;;;5037189;28;20060;-66
2022/09/26 09:47:17;;;;;;;8.73;1.80;;;;;;;;;;5029475;28;20017;-67
2022/09/26 09:49:45;;;;;;;3.08;1.63;;;;;;;;;;5047559;28;20017;-66
2022/09/26 09:52:32;;;;;;;4.43;2.28;;;;;;;;;;5031226;28;20041;-66
2022/09/26 09:55:23;;;;;;;4.05;1.60;;;;;;;;;;5046735;28;20124;-66
2022/09/26 09:58:19;;;;;;;4.57;1.55;;;;;;;;;;5053868;28;20079;-66
2022/09/26 10:01:00;;;;;;;3.08;1.67;;;;;;;;;;5034251;28;20135;-66
2022/09/26 10:03:35;;;;;;;6.43;1.80;;;;;;;;;;5036433;28;20082;-67
2022/09/26 10:06:00;;;;;;;4.72;1.90;;;;;;;;;;5046191;28;20048;-66
2022/09/26 10:08:32;;;;;;;3.55;1.50;;;;;;;;;;5047867;28;20198;-66
2022/09/26 10:11:11;;;;;;;6.30;2.03;;;;;;;;;;5049767;28;20490;-66
2022/09/26 10:13:42;;;;;;;3.50;1.50;;;;;;;;;;5030043;28;20049;-66
2022/09/26 10:16:10;;;;;;;4.90;2.20;;;;;;;;;;5028206;28;20029;-67
2022/09/26 10:19:00;;;;;;;5.97;2.00;;;;;;;;;;5026934;28;20032;-66
2022/09/26 10:21:38;;;;;;;4.93;2.10;;;;;;;;;;5010121;28;20037;-67
2022/09/26 10:24:04;;;;;;;4.20;1.90;;;;;;;;;;5026499;28;20030;-66
2022/09/26 10:26:34;;;;;;;4.93;2.13;;;;;;;;;;5028287;28;20079;-66
2022/09/26 10:29:04;;;;;;;3.95;1.83;;;;;;;;;;5029415;28;20025;-66
2022/09/26 10:31:41;;;;;;;4.28;1.50;;;;;;;;;;5066706;28;20037;-66
2022/09/26 10:34:22;;;;;;;2.78;1.88;;;;;;;;;;5068062;28;20042;-66
2022/09/26 10:36:47;;;;;;;2.72;1.75;;;;;;;;;;5050207;28;20029;-67
2022/09/26 10:42:18;;;;;;;4.38;1.60;;;;;;;;;;5047686;28;20040;-67
2022/09/26 10:44:46;;;;;;;3.45;1.77;;;;;;;;;;5045339;28;20021;-66
2022/09/26 10:47:15;;;;;;;5.88;2.05;;;;;;;;;;5045830;28;20021;-66
2022/09/26 10:49:45;;;;;;;3.75;1.65;;;;;;;;;;5045618;28;20055;-66
2022/09/26 10:52:22;;;;;;;4.10;1.80;;;;;;;;;;5044346;28;20037;-66
2022/09/26 10:55:03;;;;;;;4.75;1.85;;;;;;;;;;5047689;28;20083;-66
2022/09/26 10:57:50;;;;;;;4.68;2.10;;;;;;;;;;5044172;28;20032;-67
2022/09/26 11:00:37;;;;;;;4.80;2.10;;;;;;;;;;5044205;28;20037;-67
2022/09/26 11:03:05;;;;;;;2.83;1.90;;;;;;;;;;5024701;28;20061;-66
2022/09/26 11:08:20;;;;;;;5.00;2.08;;;;;;;;;;5037458;28;20079;-67
2022/09/26 11:10:46;;;;;;;4.32;1.80;;;;;;;;;;5030350;28;20092;-67
2022/09/26 11:13:22;;;;;;;3.65;2.22;;;;;;;;;;5014817;28;20079;-67
2022/09/26 11:16:13;;;;;;;2.85;1.63;;;;;;;;;;5024483;28;20064;-67
2022/09/26 11:18:44;;;;;;;3.20;2.20;;;;;;;;;;5053152;28;20036;-66
2022/09/26 11:21:20;;;;;;;4.13;2.28;;;;;;;;;;5066800;28;20572;-68
2022/09/26 11:24:24;;;;;;;5.68;2.22;;;;;;;;;;5048768;28;20585;-68
2022/09/26 11:27:04;;;;;;;;;;;;;;;;;;5045892;28;20116;-68
2022/09/26 11:29:52;;;;;;;2.95;1.75;;;;;;;;;;5047896;28;20401;-68
2022/09/26 11:32:25;;;;;;;3.58;1.70;;;;;;;;;;5045163;28;20033;-68
2022/09/26 11:34:53;;;;;;;4.40;1.75;;;;;;;;;;5046400;28;20024;-68
2022/09/26 11:37:38;;;;;;;5.43;1.83;;;;;;;;;;5053284;28;20029;-68
2022/09/26 11:40:03;;;;;;;3.35;1.67;;;;;;;;;;5040629;28;20587;-68
2022/09/26 11:42:47;;;;;;;4.82;1.88;;;;;;;;;;5027517;28;20068;-67
2022/09/26 11:45:36;;;;;;;7.75;1.85;;;;;;;;;;5046529;28;20163;-68
2022/09/26 11:48:11;;;;;;;4.50;1.98;;;;;;;;;;5045707;28;20044;-67
2022/09/26 11:50:43;;;;;;;2.63;1.50;;;;;;;;;;5030144;28;20025;-68
2022/09/26 11:53:14;;;;;;;5.72;2.00;;;;;;;;;;5026143;28;20079;-68
2022/09/26 11:56:01;;;;;;;2.92;1.52;;;;;;;;;;5026201;28;20053;-67
2022/09/26 11:58:38;;;;;;;2.72;1.70;;;;;;;;;;5032297;28;20459;-67
2022/09/26 12:01:19;;;;;;;3.65;1.50;;;;;;;;;;5036385;28;20402;-67
2022/09/26 12:04:05;;;;;;;4.40;1.80;;;;;;;;;;5044663;28;20032;-67
2022/09/26 12:07:08;;;;;;;3.10;1.40;;;;;;;;;;5045054;28;20033;-67
2022/09/26 12:09:40;;;;;;;1.60;1.23;;;;;;;;;;5066375;28;20052;-67
2022/09/26 12:12:23;;;;;;;2.25;1.58;;;;;;;;;;5047610;28;20029;-67
2022/09/26 12:15:15;;;;;;;2.47;1.23;;;;;;;;;;5048419;28;20028;-67
2022/09/26 12:18:01;;;;;;;5.50;1.48;;;;;;;;;;5064428;28;20028;-68
2022/09/26 12:20:37;;;;;;;2.22;1.10;;;;;;;;;;5031585;28;20081;-67
2022/09/26 12:23:29;;;;;;;4.13;1.50;;;;;;;;;;5022727;28;20025;-68
2022/09/26 12:26:13;;;;;;;2.08;1.38;;;;;;;;;;5026772;28;20034;-67
2022/09/26 12:28:47;;;;;;;2.95;1.30;;;;;;;;;;5025944;28;20605;-67
2022/09/26 12:31:41;;;;;;;4.47;1.50;;;;;;;;;;5026303;28;20036;-68
2022/09/26 12:34:13;;;;;;;2.17;1.30;;;;;;;;;;5026417;28;20553;-67
2022/09/26 12:36:55;;;;;;;6.43;1.52;;;;;;;;;;5043064;28;20581;-68
2022/09/26 12:39:26;;;;;;;2.42;1.50;;;;;;;;;;5038932;28;20087;-68
2022/09/26 12:42:25;;;;;;;1.83;1.20;;;;;;;;;;5008739;28;20041;-67
2022/09/26 12:45:14;;;;;;;3.35;1.40;;;;;;;;;;5015401;28;20556;-68
2022/09/26 12:47:44;;;;;;;2.58;1.52;;;;;;;;;;5041774;28;20033;-67
2022/09/26 12:50:35;;;;;;;1.98;1.20;;;;;;;;;;5046059;28;20117;-67
2022/09/26 12:53:18;;;;;;;2.13;1.33;;;;;;;;;;5028478;28;20035;-67
2022/09/26 12:55:53;;;;;;;2.25;1.50;;;;;;;;;;5044970;28;20037;-67
2022/09/26 12:58:52;;;;;;;2.15;1.50;;;;;;;;;;5026936;28;20403;-67
2022/09/26 13:01:43;;;;;;;1.98;1.27;;;;;;;;;;5059925;28;20053;-67
2022/09/26 13:04:20;;;;;;;4.78;1.38;;;;;;;;;;5066189;28;20124;-67
2022/09/26 13:07:30;;;;;;;4.57;1.50;;;;;;;;;;5066331;28;20087;-67
2022/09/26 13:10:25;;;;;;;4.28;1.50;;;;;;;;;;5053572;28;20037;-68
2022/09/26 13:13:05;;;;;;;3.10;1.52;;;;;;;;;;5014230;28;20048;-67
2022/09/26 13:15:35;;;;;;;1.60;1.17;;;;;;;;;;5026357;28;20513;-67
2022/09/26 13:18:08;;;;;;;2.30;1.38;;;;;;;;;;5041081;28;20029;-68
2022/09/26 13:20:42;;;;;;;2.30;1.42;;;;;;;;;;5025387;28;20024;-67
2022/09/26 13:23:16;;;;;;;3.78;1.55;;;;;;;;;;5027506;28;20326;-67
2022/09/26 13:25:51;;;;;;;2.78;1.60;;;;;;;;;;5043266;28;20048;-67
2022/09/26 13:28:36;;;;;;;4.70;1.70;;;;;;;;;;5044643;28;20623;-67
2022/09/26 13:31:20;;;;;;;1.60;1.40;;;;;;;;;;5042996;28;20060;-67
2022/09/26 13:33:48;;;;;;;2.00;1.40;;;;;;;;;;5033108;28;20550;-67
2022/09/26 13:36:16;;;;;;;1.60;1.13;;;;;;;;;;5025265;28;20038;-67
2022/09/26 13:38:59;;;;;;;1.58;1.20;;;;;;;;;;5029222;28;20530;-67
2022/09/26 13:42:07;;;;;;;1.50;1.25;;;;;;;;;;5033588;28;20021;-67
2022/09/26 13:44:46;;;;;;;3.30;1.30;;;;;;;;;;5041451;28;20065;-67
2022/09/26 13:47:48;;;;;;;1.33;1.20;;;;;;;;;;5049307;28;20371;-67
2022/09/26 13:50:22;;;;;;;2.55;1.20;;;;;;;;;;5049201;28;20025;-67
2022/09/26 13:53:09;;;;;;;1.10;1.00;;;;;;;;;;5048341;28;20029;-67
2022/09/26 13:55:35;;;;;;;2.35;1.13;;;;;;;;;;5046961;28;20044;-67
2022/09/26 13:58:24;;;;;;;1.45;1.20;;;;;;;;;;5030312;28;20041;-68
2022/09/26 14:00:52;;;;;;;1.40;0.85;;;;;;;;;;5030039;28;20029;-67
2022/09/26 14:03:17;;;;;;;1.70;1.20;;;;;;;;;;5029644;28;20091;-67
2022/09/26 14:05:43;;;;;;;3.50;1.20;;;;;;;;;;5048476;28;20033;-68
2022/09/26 14:11:29;;;;;;;2.78;1.38;;;;;;;;;;5048607;28;20429;-68
2022/09/26 14:16:45;;;;;;;2.92;1.45;;;;;;;;;;5049395;28;20069;-68
2022/09/26 14:19:16;;;;;;;2.17;1.30;;;;;;;;;;5049093;28;20059;-68
2022/09/26 14:21:56;;;;;;;4.03;1.35;;;;;;;;;;5048354;28;20033;-67
2022/09/26 14:24:32;;;;;;;1.55;1.20;;;;;;;;;;5048380;28;20102;-67
2022/09/26 14:27:05;;;;;;;1.48;1.27;;;;;;;;;;5048647;28;20033;-67
2022/09/26 14:29:31;;;;;;;;;;;;;;;;;;5046154;28;20949;-68
2022/09/26 14:32:00;;;;;;;1.42;1.17;;;;;;;;;;5039692;28;19912;-67
2022/09/26 14:34:31;;;;;;;1.42;1.13;;;;;;;;;;5045870;28;20811;-67
2022/09/26 14:37:02;;;;;;;1.85;1.00;;;;;;;;;;5066771;28;20124;-67
2022/09/26 14:40:09;;;;;;;2.03;1.40;;;;;;;;;;5059043;28;20551;-68
2022/09/26 14:42:52;;;;;;;1.70;1.20;;;;;;;;;;5030227;28;20045;-68
2022/09/26 14:45:18;;;;;;;;;;;;;;;;;;5041534;28;20045;-68
2022/09/26 14:47:47;;;;;;;2.67;1.17;;;;;;;;;;5059072;28;19912;-67
2022/09/26 14:50:23;;;;;;;1.90;1.20;;;;;;;;;;5048081;28;20267;-68
2022/09/26 14:53:08;;;;;;;4.30;1.42;;;;;;;;;;5035578;28;20024;-67
2022/09/26 14:55:34;;;;;;;2.08;1.42;;;;;;;;;;5010131;28;20053;-67
2022/09/26 14:58:27;;;;;;;1.92;1.33;;;;;;;;;;5027520;28;20129;-68
2022/09/26 15:00:53;;;;;;;3.13;1.63;;;;;;;;;;5027002;28;20533;-68
2022/09/26 15:03:20;;;;;;;1.70;1.30;;;;;;;;;;5027658;28;20184;-68
2022/09/26 15:05:46;;;;;;;2.10;1.45;;;;;;;;;;5028116;28;20406;-68
2022/09/26 15:08:27;;;;;;;3.60;1.58;;;;;;;;;;5027983;28;20053;-67
2022/09/26 15:10:55;;;;;;;2.75;1.77;;;;;;;;;;5010110;28;20077;-67
2022/09/26 15:13:37;;;;;;;3.70;2.10;;;;;;;;;;5029276;28;20032;-68
2022/09/26 15:16:13;;;;;;;2.83;1.70;;;;;;;;;;5045167;28;20044;-68
2022/09/26 15:18:46;;;;;;;3.20;1.90;;;;;;;;;;5047737;28;20037;-68
2022/09/26 15:21:35;;;;;;;5.28;2.47;;;;;;;;;;5047303;28;20132;-68
2022/09/26 15:24:21;;;;;;;5.00;2.22;;;;;;;;;;5037414;28;20033;-67
2022/09/26 15:26:48;;;;;;;4.90;2.60;;;;;;;;;;5048432;28;20117;-67
2022/09/26 15:29:16;;;;;;;3.47;2.40;;;;;;;;;;5047387;28;20507;-68
2022/09/26 15:31:43;;;;;;;4.65;2.20;;;;;;;;;;5030375;28;20032;-68
2022/09/26 15:34:16;;;;;;;4.30;2.50;;;;;;;;;;5047655;28;20041;-68
2022/09/26 15:36:43;;;;;;;6.82;3.05;;;;;;;;;;5047702;28;20072;-67
2022/09/26 15:39:30;;;;;;;4.22;2.80;;;;;;;;;;5041591;28;20034;-68